Portage, Indiana
Current Conditions -  °F | °C
As of 8:45 AM on Wednesday 22 Oct 2014 (Local Time) from KGYY Reporting Station
Clear Clear  
Wind Chill: 43°   Ceiling: Unl
Heat Index: 43°   Visibility: 15mi
Dew Point: 37°   Wind: 3mph
Humidity: 81%   Direction: 140°SE
Pressure: 30.37"   Gusts: NA
Location:  41.6°N, 87.17°W
Report Text: KGYY 221345Z 14003KT 15SM SKC 06/03 A3037
Loading
Personal Weather Stations






























Interactive Weather Map
Tropical Storm Tracking
New forecast layout! Learn more

10-Day Weather Forecast

Advertisements
Track Severe Weather on mobile